Time;durP1;ratioP1;P1;durP2;ratioP2;P2;SDS_P1;SDS_P2;PMS_P1;PMS_P2;Temp;Humidity;BMP_temperature;BMP_pressure;BME280_temperature;BME280_humidity;BME280_pressure;Samples;Min_cycle;Max_cycle;Signal;HPM_P1;HPM_P2
2021/07/20 00:02:06;;;;;;;;;;;15.60;99.90;;;;;;5052713;28;19909;-83
2021/07/20 00:04:31;;;;;;;;;;;15.60;99.90;;;;;;5063612;28;19916;-84
2021/07/20 00:06:57;;;;;;;;;;;15.60;99.90;;;;;;5054989;28;19909;-82
2021/07/20 00:09:22;;;;;;;;;;;15.60;99.90;;;;;;5055312;28;19954;-84
2021/07/20 00:11:48;;;;;;;;;;;15.60;99.90;;;;;;5054694;28;19913;-83
2021/07/20 00:14:14;;;;;;;;;;;15.60;99.90;;;;;;5054150;28;19929;-83
2021/07/20 00:16:39;;;;;;;;;;;15.50;99.90;;;;;;5057242;28;20324;-83
2021/07/20 00:19:05;;;;;;;;;;;15.50;99.90;;;;;;5056478;28;19916;-83
2021/07/20 00:21:31;;;;;;;;;;;15.50;99.90;;;;;;5054531;28;19913;-84
2021/07/20 00:23:57;;;;;;;;;;;15.50;99.90;;;;;;5055340;28;19909;-84
2021/07/20 00:26:22;;;;;;;;;;;15.50;99.90;;;;;;5056238;28;19978;-84
2021/07/20 00:28:49;;;;;;;;;;;15.50;99.90;;;;;;5055443;28;19916;-83
2021/07/20 00:31:15;;;;;;;;;;;15.40;99.90;;;;;;5053674;28;19913;-83
2021/07/20 00:33:40;;;;;;;;;;;15.30;99.90;;;;;;5056119;28;20015;-82
2021/07/20 00:36:07;;;;;;;;;;;15.30;99.90;;;;;;5055300;28;19963;-84
2021/07/20 00:38:33;;;;;;;;;;;15.30;99.90;;;;;;5051443;28;19916;-84
2021/07/20 00:40:58;;;;;;;;;;;15.20;99.90;;;;;;5056488;28;19909;-84
2021/07/20 00:43:24;;;;;;;;;;;15.20;99.90;;;;;;5054959;28;19909;-81
2021/07/20 00:45:49;;;;;;;;;;;15.20;99.90;;;;;;5055085;28;19959;-83
2021/07/20 00:48:16;;;;;;;;;;;15.10;99.90;;;;;;5054661;28;19916;-85
2021/07/20 00:50:43;;;;;;;;;;;15.10;99.90;;;;;;5055755;28;19909;-83
2021/07/20 00:53:09;;;;;;;;;;;15.10;99.90;;;;;;5055456;28;19917;-82
2021/07/20 00:55:37;;;;;;;;;;;15.10;99.90;;;;;;5055297;28;19917;-83
2021/07/20 00:58:03;;;;;;;;;;;15.10;99.90;;;;;;5055249;28;19981;-83
2021/07/20 01:00:29;;;;;;;;;;;15.10;99.90;;;;;;5055331;28;19920;-81
2021/07/20 01:02:54;;;;;;;;;;;15.00;99.90;;;;;;5055762;28;19953;-83
2021/07/20 01:05:21;;;;;;;;;;;15.00;99.90;;;;;;5054303;28;20007;-83
2021/07/20 01:07:47;;;;;;;;;;;15.00;99.90;;;;;;5054665;28;19923;-82
2021/07/20 01:10:14;;;;;;;;;;;15.00;99.90;;;;;;5053401;28;19909;-82
2021/07/20 01:12:41;;;;;;;;;;;14.90;99.90;;;;;;5054864;28;19956;-82
2021/07/20 01:15:07;;;;;;;;;;;14.90;99.90;;;;;;5054038;28;19917;-82
2021/07/20 01:17:37;;;;;;;;;;;14.90;99.90;;;;;;5053131;28;20007;-82
2021/07/20 01:20:14;;;;;;;;;;;14.80;99.90;;;;;;5053764;28;19909;-83
2021/07/20 01:22:41;;;;;;;;;;;14.80;99.90;;;;;;5053793;28;19908;-82
2021/07/20 01:25:11;;;;;;;;;;;14.70;99.90;;;;;;5053789;28;19909;-82
2021/07/20 01:27:40;;;;;;;;;;;14.60;99.90;;;;;;5051599;28;19916;-82
2021/07/20 01:30:08;;;;;;;;;;;14.60;99.90;;;;;;5053601;28;20216;-82
2021/07/20 01:32:34;;;;;;;;;;;14.50;99.90;;;;;;5053625;28;19913;-81
2021/07/20 01:35:00;;;;;;;;;;;14.50;99.90;;;;;;5054029;28;19963;-80
2021/07/20 01:37:26;;;;;;;;;;;14.40;99.90;;;;;;5054847;28;19986;-83
2021/07/20 01:39:53;;;;;;;;;;;14.30;99.90;;;;;;5052279;28;20300;-81
2021/07/20 01:42:19;;;;;;;;;;;14.30;99.90;;;;;;5054913;28;19959;-80
2021/07/20 01:44:45;;;;;;;;;;;14.40;99.90;;;;;;5050614;28;19909;-83
2021/07/20 01:47:12;;;;;;;;;;;14.40;99.90;;;;;;5050619;28;19913;-83
2021/07/20 01:49:38;;;;;;;;;;;14.40;99.90;;;;;;5053222;28;20019;-82
2021/07/20 01:52:04;;;;;;;;;;;14.40;99.90;;;;;;5051365;28;19913;-80
2021/07/20 01:54:30;;;;;;;;;;;14.50;99.90;;;;;;5053427;28;19909;-80
2021/07/20 01:56:55;;;;;;;;;;;14.40;99.90;;;;;;5048820;28;19928;-81
2021/07/20 01:59:21;;;;;;;;;;;14.40;99.90;;;;;;5049834;28;19921;-81
2021/07/20 02:02:04;;;;;;;;;;;14.40;99.90;;;;;;5051062;28;20260;-82
2021/07/20 02:10:01;;;;;;;;;;;14.30;99.90;;;;;;5055033;28;20013;-82
2021/07/20 02:12:33;;;;;;;;;;;14.30;99.90;;;;;;5071223;28;20430;-82
2021/07/20 02:15:00;;;;;;;;;;;14.30;99.90;;;;;;5053024;28;19908;-81
2021/07/20 02:17:27;;;;;;;;;;;14.30;99.90;;;;;;5071951;28;19916;-82
2021/07/20 02:19:54;;;;;;;;;;;14.20;99.90;;;;;;5057633;28;20007;-82
2021/07/20 02:22:21;;;;;;;;;;;14.10;99.90;;;;;;5048314;28;20280;-82
2021/07/20 02:24:48;;;;;;;;;;;14.10;99.90;;;;;;5051788;28;19909;-83
2021/07/20 02:27:13;;;;;;;;;;;14.10;99.90;;;;;;5056871;28;19920;-80
2021/07/20 02:29:39;;;;;;;;;;;14.00;99.90;;;;;;5057870;28;19920;-81
2021/07/20 02:32:06;;;;;;;;;;;13.90;99.90;;;;;;5057950;28;19958;-81
2021/07/20 02:34:35;;;;;;;;;;;13.90;99.90;;;;;;5056059;28;19959;-83
2021/07/20 02:37:01;;;;;;;;;;;13.90;99.90;;;;;;5056552;28;19916;-83
2021/07/20 02:39:28;;;;;;;;;;;13.80;99.90;;;;;;5057611;28;19913;-82
2021/07/20 02:41:55;;;;;;;;;;;13.80;99.90;;;;;;5055596;28;19913;-83
2021/07/20 02:44:22;;;;;;;;;;;13.80;99.90;;;;;;5056192;28;19917;-82
2021/07/20 02:46:48;;;;;;;;;;;13.80;99.90;;;;;;5056267;28;19959;-82
2021/07/20 02:49:15;;;;;;;;;;;13.80;99.90;;;;;;5057008;28;19967;-80
2021/07/20 02:51:40;;;;;;;;;;;13.80;99.90;;;;;;5055542;28;20355;-81
2021/07/20 02:54:06;;;;;;;;;;;13.90;99.90;;;;;;5056154;28;19995;-83
2021/07/20 02:56:32;;;;;;;;;;;13.80;99.90;;;;;;5054448;28;20292;-82
2021/07/20 02:59:05;;;;;;;;;;;13.80;99.90;;;;;;5055139;28;19951;-83
2021/07/20 03:01:36;;;;;;;;;;;13.70;99.90;;;;;;5052561;28;19917;-82
2021/07/20 03:04:02;;;;;;;;;;;13.70;99.90;;;;;;5065636;28;19913;-83
2021/07/20 03:06:28;;;;;;;;;;;13.70;99.90;;;;;;5052324;28;19936;-83
2021/07/20 03:08:58;;;;;;;;;;;13.80;99.90;;;;;;5055712;28;19920;-82
2021/07/20 03:11:27;;;;;;;;;;;13.70;99.90;;;;;;5056102;28;20274;-82
2021/07/20 03:13:55;;;;;;;;;;;13.70;99.90;;;;;;5054116;28;19916;-82
2021/07/20 03:16:22;;;;;;;;;;;13.70;99.90;;;;;;5056516;28;20304;-81
2021/07/20 03:18:47;;;;;;;;;;;13.60;99.90;;;;;;5056880;28;20009;-82
2021/07/20 03:21:14;;;;;;;;;;;13.60;99.90;;;;;;5052630;28;20059;-81
2021/07/20 03:23:40;;;;;;;;;;;13.50;99.90;;;;;;5054315;28;19931;-82
2021/07/20 03:26:06;;;;;;;;;;;13.50;99.90;;;;;;5052275;28;20197;-81
2021/07/20 03:28:32;;;;;;;;;;;13.50;99.90;;;;;;5054910;28;19919;-80
2021/07/20 03:30:58;;;;;;;;;;;13.50;99.90;;;;;;5050035;28;19924;-82
2021/07/20 03:33:24;;;;;;;;;;;13.40;99.90;;;;;;5053190;28;19962;-82
2021/07/20 03:35:50;;;;;;;;;;;13.40;99.90;;;;;;5053724;28;19996;-82
2021/07/20 03:38:17;;;;;;;;;;;13.30;99.90;;;;;;5056079;28;19917;-82
2021/07/20 03:40:44;;;;;;;;;;;13.40;99.90;;;;;;5055463;28;19909;-82
2021/07/20 03:43:10;;;;;;;;;;;13.40;99.90;;;;;;5055436;28;19916;-81
2021/07/20 03:45:35;;;;;;;;;;;13.30;99.90;;;;;;5053446;28;19923;-82
2021/07/20 03:48:01;;;;;;;;;;;13.30;99.90;;;;;;5056355;28;19912;-81
2021/07/20 03:50:27;;;;;;;;;;;13.30;99.90;;;;;;5055571;28;19913;-81
2021/07/20 03:52:54;;;;;;;;;;;13.30;99.90;;;;;;5054027;28;19916;-82
2021/07/20 03:55:20;;;;;;;;;;;13.30;99.90;;;;;;5055580;28;20239;-82
2021/07/20 03:57:46;;;;;;;;;;;13.40;99.90;;;;;;5052199;28;19976;-82
2021/07/20 04:00:13;;;;;;;;;;;13.50;99.90;;;;;;5052048;28;19974;-80
2021/07/20 04:02:48;;;;;;;;;;;13.50;99.90;;;;;;5054711;28;19924;-83
2021/07/20 04:05:15;;;;;;;;;;;13.50;99.90;;;;;;5056608;28;19917;-82
2021/07/20 04:07:42;;;;;;;;;;;13.50;99.90;;;;;;5055539;28;19916;-80
2021/07/20 04:10:08;;;;;;;;;;;13.50;99.90;;;;;;5056317;28;20320;-81
2021/07/20 04:12:35;;;;;;;;;;;13.40;99.90;;;;;;5051418;28;19943;-81
2021/07/20 04:15:01;;;;;;;;;;;13.40;99.90;;;;;;5066604;28;19913;-81
2021/07/20 04:17:27;;;;;;;;;;;13.30;99.90;;;;;;5050821;28;20451;-82
2021/07/20 04:19:53;;;;;;;;;;;13.30;99.90;;;;;;5053660;28;19917;-82
2021/07/20 04:22:19;;;;;;;;;;;13.30;99.90;;;;;;5051750;28;19920;-82
2021/07/20 04:24:45;;;;;;;;;;;13.30;99.90;;;;;;5053507;28;20320;-82
2021/07/20 04:27:12;;;;;;;;;;;13.30;99.90;;;;;;5054499;28;19913;-82
2021/07/20 04:29:38;;;;;;;;;;;13.30;99.90;;;;;;5054897;28;19927;-82
2021/07/20 04:32:04;;;;;;;;;;;13.30;99.90;;;;;;5053897;28;19917;-81
2021/07/20 04:34:33;;;;;;;;;;;13.40;99.90;;;;;;5054051;28;20288;-81
2021/07/20 04:37:00;;;;;;;;;;;13.50;99.90;;;;;;5048655;28;20338;-81
2021/07/20 04:39:26;;;;;;;;;;;13.50;99.90;;;;;;5053944;28;20003;-82
2021/07/20 04:41:53;;;;;;;;;;;13.50;99.90;;;;;;5051516;28;20343;-81
2021/07/20 04:44:19;;;;;;;;;;;13.50;99.90;;;;;;5052788;28;19956;-82
2021/07/20 04:46:46;;;;;;;;;;;13.60;99.90;;;;;;5052425;28;19913;-82
2021/07/20 04:49:12;;;;;;;;;;;13.60;99.90;;;;;;5052876;28;20015;-81
2021/07/20 04:51:38;;;;;;;;;;;13.60;99.90;;;;;;5053452;28;20047;-84
2021/07/20 04:54:04;;;;;;;;;;;13.60;99.90;;;;;;5053334;28;19967;-82
2021/07/20 04:56:30;;;;;;;;;;;13.70;99.90;;;;;;5052199;28;19913;-81
2021/07/20 04:58:56;;;;;;;;;;;13.80;99.90;;;;;;5050156;28;19917;-84
2021/07/20 05:01:22;;;;;;;;;;;13.90;99.90;;;;;;5044930;28;19942;-83
2021/07/20 05:03:48;;;;;;;;;;;13.90;99.90;;;;;;5054698;28;19959;-81
2021/07/20 05:06:14;;;;;;;;;;;13.90;99.90;;;;;;5052760;28;19919;-81
2021/07/20 05:08:40;;;;;;;;;;;14.00;99.90;;;;;;5050504;28;19913;-84
2021/07/20 05:11:06;;;;;;;;;;;14.00;99.90;;;;;;5054975;28;20022;-84
2021/07/20 05:13:31;;;;;;;;;;;14.00;99.90;;;;;;5055224;28;19916;-83
2021/07/20 05:15:58;;;;;;;;;;;14.00;99.90;;;;;;5049555;28;19913;-83
2021/07/20 05:18:24;;;;;;;;;;;14.10;99.90;;;;;;5049974;28;19909;-84
2021/07/20 05:20:53;;;;;;;;;;;14.20;99.90;;;;;;5051181;28;19939;-84
2021/07/20 05:23:19;;;;;;;;;;;14.30;99.90;;;;;;5050374;28;20016;-82
2021/07/20 05:25:47;;;;;;;;;;;14.20;99.90;;;;;;5051141;28;19998;-83
2021/07/20 05:28:13;;;;;;;;;;;14.30;99.90;;;;;;5050215;28;19960;-81
2021/07/20 05:30:40;;;;;;;;;;;14.40;99.90;;;;;;5052747;28;19917;-84
2021/07/20 05:33:06;;;;;;;;;;;14.40;99.90;;;;;;5054765;28;19913;-83
2021/07/20 05:35:31;;;;;;;;;;;14.30;99.90;;;;;;5045472;28;20390;-84
2021/07/20 05:37:57;;;;;;;;;;;14.30;99.90;;;;;;5053737;28;20200;-84
2021/07/20 05:40:23;;;;;;;;;;;14.40;99.90;;;;;;5049376;28;20319;-85
2021/07/20 05:42:50;;;;;;;;;;;14.40;99.90;;;;;;5052046;28;19958;-85
2021/07/20 05:45:16;;;;;;;;;;;14.50;99.90;;;;;;5053409;28;19978;-80
2021/07/20 05:47:42;;;;;;;;;;;14.60;99.90;;;;;;5054240;28;20315;-84
2021/07/20 05:50:08;;;;;;;;;;;14.70;99.90;;;;;;5053591;28;19921;-85
2021/07/20 05:52:35;;;;;;;;;;;14.80;99.90;;;;;;5053873;28;19985;-85
2021/07/20 05:55:01;;;;;;;;;;;14.90;99.90;;;;;;5055511;28;19913;-85
2021/07/20 05:57:28;;;;;;;;;;;15.00;99.90;;;;;;5053106;28;19909;-84
2021/07/20 05:59:53;;;;;;;;;;;15.00;99.90;;;;;;5050622;28;19928;-83
2021/07/20 06:02:19;;;;;;;;;;;15.10;99.90;;;;;;5050597;28;19917;-83
2021/07/20 06:04:45;;;;;;;;;;;15.20;99.90;;;;;;5052970;28;19915;-84
2021/07/20 06:07:12;;;;;;;;;;;15.30;99.90;;;;;;5053617;28;19909;-86
2021/07/20 06:09:41;;;;;;;;;;;15.40;99.90;;;;;;5056318;28;19991;-84
2021/07/20 06:12:08;;;;;;;;;;;15.40;99.90;;;;;;5053045;28;19951;-85
2021/07/20 06:14:35;;;;;;;;;;;15.50;99.90;;;;;;5053091;28;19919;-81
2021/07/20 06:17:01;;;;;;;;;;;15.50;99.90;;;;;;5054110;28;19920;-85
2021/07/20 06:19:26;;;;;;;;;;;15.60;99.90;;;;;;5054532;28;19909;-85
2021/07/20 06:21:53;;;;;;;;;;;15.70;99.90;;;;;;5053592;28;19909;-84
2021/07/20 06:24:19;;;;;;;;;;;15.70;99.90;;;;;;5053269;28;19929;-84
2021/07/20 06:26:45;;;;;;;;;;;15.80;99.90;;;;;;5052977;28;19913;-84
2021/07/20 06:29:11;;;;;;;;;;;15.80;99.90;;;;;;5051887;28;20127;-86
2021/07/20 06:31:39;;;;;;;;;;;15.90;99.90;;;;;;5055237;28;19916;-80
2021/07/20 06:34:06;;;;;;;;;;;16.00;99.90;;;;;;5054724;28;19919;-85
2021/07/20 06:36:33;;;;;;;;;;;16.10;99.90;;;;;;5056675;28;20307;-86
2021/07/20 06:38:59;;;;;;;;;;;16.20;99.90;;;;;;5052929;28;20211;-85
2021/07/20 06:41:25;;;;;;;;;;;16.20;99.90;;;;;;5054661;28;19913;-84
2021/07/20 06:43:51;;;;;;;;;;;16.30;99.90;;;;;;5051451;28;20019;-84
2021/07/20 06:46:20;;;;;;;;;;;16.40;99.90;;;;;;5050623;28;20323;-85
2021/07/20 06:48:46;;;;;;;;;;;16.50;99.90;;;;;;5050729;28;19921;-85
2021/07/20 06:51:12;;;;;;;;;;;16.50;99.90;;;;;;5052494;28;19913;-85
2021/07/20 06:53:37;;;;;;;;;;;16.60;99.90;;;;;;5053315;28;19999;-81
2021/07/20 06:56:04;;;;;;;;;;;16.70;99.90;;;;;;5053818;28;19966;-81
2021/07/20 06:58:31;;;;;;;;;;;16.80;99.90;;;;;;5052541;28;19920;-83
2021/07/20 07:00:58;;;;;;;;;;;16.80;99.90;;;;;;5054354;28;19925;-85
2021/07/20 07:03:32;;;;;;;;;;;16.90;99.90;;;;;;5057729;28;19920;-85
2021/07/20 07:06:00;;;;;;;;;;;16.90;99.90;;;;;;5053210;28;19939;-84
2021/07/20 07:08:27;;;;;;;;;;;17.00;99.90;;;;;;5062094;28;19946;-83
2021/07/20 07:10:54;;;;;;;;;;;17.10;99.90;;;;;;5057607;28;19916;-84
2021/07/20 07:13:20;;;;;;;;;;;17.20;99.90;;;;;;5052584;28;19975;-85
2021/07/20 07:15:47;;;;;;;;;;;17.20;99.90;;;;;;5054767;28;19925;-83
2021/07/20 07:18:13;;;;;;;;;;;17.20;99.90;;;;;;5058579;28;20330;-82
2021/07/20 07:20:39;;;;;;;;;;;17.30;99.90;;;;;;5061949;28;20015;-84
2021/07/20 07:23:05;;;;;;;;;;;17.40;99.90;;;;;;5055385;28;19958;-86
2021/07/20 07:25:31;;;;;;;;;;;17.40;99.90;;;;;;5052861;28;19913;-80
2021/07/20 07:27:57;;;;;;;;;;;17.50;99.90;;;;;;5058088;28;20519;-84
2021/07/20 07:30:23;;;;;;;;;;;17.50;99.90;;;;;;5057428;28;19917;-85
2021/07/20 07:32:49;;;;;;;;;;;17.60;99.90;;;;;;5043337;28;19921;-81
2021/07/20 07:35:15;;;;;;;;;;;17.60;99.90;;;;;;5055462;28;19928;-84
2021/07/20 07:37:41;;;;;;;;;;;17.70;99.90;;;;;;5053336;28;19913;-84
2021/07/20 07:40:09;;;;;;;;;;;17.80;99.90;;;;;;5060224;28;19940;-85
2021/07/20 07:42:35;;;;;;;;;;;17.90;99.90;;;;;;5058833;28;19913;-84
2021/07/20 07:45:02;;;;;;;;;;;18.00;99.90;;;;;;5054416;28;19915;-82
2021/07/20 07:47:27;;;;;;;;;;;18.10;99.90;;;;;;5055188;28;20315;-84
2021/07/20 07:49:53;;;;;;;;;;;18.20;99.90;;;;;;5053014;28;19920;-82
2021/07/20 07:52:19;;;;;;;;;;;18.30;99.90;;;;;;5052155;28;19913;-83
2021/07/20 07:54:46;;;;;;;;;;;18.30;99.90;;;;;;5050864;28;20001;-84
2021/07/20 07:57:12;;;;;;;;;;;18.40;99.90;;;;;;5054695;28;19912;-83
2021/07/20 07:59:41;;;;;;;;;;;18.40;99.90;;;;;;5056524;28;19925;-83
2021/07/20 08:02:09;;;;;;;;;;;18.40;99.90;;;;;;5054909;28;20319;-86
2021/07/20 08:04:35;;;;;;;;;;;18.50;99.90;;;;;;5055612;28;19944;-85
2021/07/20 08:07:01;;;;;;;;;;;18.50;99.90;;;;;;5064555;28;19912;-82
2021/07/20 08:09:28;;;;;;;;;;;18.70;99.90;;;;;;5054602;28;20299;-84
2021/07/20 08:11:54;;;;;;;;;;;18.80;99.90;;;;;;5052604;28;20208;-86
2021/07/20 08:14:20;;;;;;;;;;;19.00;99.90;;;;;;5055280;28;20216;-84
2021/07/20 08:16:47;;;;;;;;;;;19.00;99.90;;;;;;5054860;28;19909;-84
2021/07/20 08:19:15;;;;;;;;;;;19.10;99.90;;;;;;5055662;28;19916;-81
2021/07/20 08:21:43;;;;;;;;;;;19.10;99.90;;;;;;5057794;28;19913;-84
2021/07/20 08:24:08;;;;;;;;;;;19.10;99.90;;;;;;5053439;28;19921;-83
2021/07/20 08:26:39;;;;;;;;;;;19.10;99.90;;;;;;5055018;28;19916;-85
2021/07/20 08:29:07;;;;;;;;;;;19.20;99.90;;;;;;5051903;28;19978;-83
2021/07/20 08:31:41;;;;;;;;;;;19.40;99.90;;;;;;5053961;28;20007;-85
2021/07/20 08:34:09;;;;;;;;;;;19.50;99.90;;;;;;5067912;28;20176;-84
2021/07/20 08:36:39;;;;;;;;;;;19.60;99.90;;;;;;5053387;28;19952;-85
2021/07/20 08:39:06;;;;;;;;;;;19.70;99.90;;;;;;5049351;28;19919;-83
2021/07/20 08:41:50;;;;;;;;;;;19.80;99.90;;;;;;5054087;28;20006;-85
2021/07/20 08:44:28;;;;;;;;;;;19.90;99.90;;;;;;5069277;28;19909;-81
2021/07/20 08:47:12;;;;;;;;;;;19.90;99.90;;;;;;5056773;28;19942;-84
2021/07/20 08:49:52;;;;;;;;;;;19.80;99.90;;;;;;5066613;28;19923;-81
2021/07/20 08:52:20;;;;;;;;;;;19.90;99.90;;;;;;5044844;28;19913;-83
2021/07/20 08:54:50;;;;;;;;;;;19.90;99.90;;;;;;5052493;28;19916;-83
2021/07/20 08:57:17;;;;;;;;;;;20.10;99.90;;;;;;5052412;28;19920;-83
2021/07/20 08:59:53;;;;;;;;;;;20.10;99.90;;;;;;5051177;28;19925;-84
2021/07/20 09:02:36;;;;;;;;;;;20.10;99.90;;;;;;5053078;28;19920;-82
2021/07/20 09:05:08;;;;;;;;;;;20.10;99.90;;;;;;5053774;28;20247;-84
2021/07/20 09:07:42;;;;;;;;;;;20.10;99.90;;;;;;5054398;28;20027;-84
2021/07/20 09:10:11;;;;;;;;;;;20.40;99.90;;;;;;5050131;28;19924;-83
2021/07/20 09:12:39;;;;;;;;;;;20.50;99.90;;;;;;5051592;28;19916;-83
2021/07/20 09:15:10;;;;;;;;;;;20.50;99.90;;;;;;5049797;28;19920;-85
2021/07/20 09:17:35;;;;;;;;;;;20.60;99.90;;;;;;5053770;28;20309;-83
2021/07/20 09:20:03;;;;;;;;;;;20.70;99.90;;;;;;5051835;28;20065;-84
2021/07/20 09:22:44;;;;;;;;;;;20.60;99.90;;;;;;5053322;28;19955;-85
2021/07/20 09:25:15;;;;;;;;;;;20.60;99.90;;;;;;5054647;28;20324;-84
2021/07/20 09:27:53;;;;;;;;;;;20.60;99.90;;;;;;5053075;28;19921;-84
2021/07/20 09:30:21;;;;;;;;;;;20.80;99.90;;;;;;5054555;28;19925;-83
2021/07/20 09:32:53;;;;;;;;;;;20.90;99.90;;;;;;5050786;28;19924;-85
2021/07/20 09:35:28;;;;;;;;;;;20.90;99.90;;;;;;5059745;28;19928;-84
2021/07/20 09:37:53;;;;;;;;;;;20.80;99.90;;;;;;5051469;28;19913;-83
2021/07/20 09:40:37;;;;;;;;;;;20.80;99.90;;;;;;5057219;28;20388;-83
2021/07/20 09:43:06;;;;;;;;;;;20.80;99.90;;;;;;5054425;28;19967;-84
2021/07/20 09:45:37;;;;;;;;;;;21.00;99.90;;;;;;5050585;28;19913;-83
2021/07/20 09:48:12;;;;;;;;;;;21.00;99.90;;;;;;5044617;28;19916;-84
2021/07/20 09:50:40;;;;;;;;;;;21.10;99.90;;;;;;5062507;28;19921;-84
2021/07/20 09:53:09;;;;;;;;;;;21.00;99.90;;;;;;5048908;28;19944;-81
2021/07/20 09:56:04;;;;;;;;;;;21.20;99.90;;;;;;5060897;28;19920;-83
2021/07/20 09:58:42;;;;;;;;;;;21.10;99.90;;;;;;5042174;28;19988;-84
2021/07/20 10:01:46;;;;;;;;;;;21.20;99.90;;;;;;5051842;28;19968;-84
2021/07/20 10:04:15;;;;;;;;;;;21.30;99.90;;;;;;4996060;28;19914;-83
2021/07/20 10:06:41;;;;;;;;;;;21.30;99.90;;;;;;5014766;28;20011;-82
2021/07/20 10:09:12;;;;;;;;;;;21.20;99.90;;;;;;5009245;28;20065;-83
2021/07/20 10:11:38;;;;;;;;;;;21.10;99.90;;;;;;5009752;28;19917;-82
2021/07/20 10:14:16;;;;;;;;;;;21.00;99.90;;;;;;5010646;28;19928;-82
2021/07/20 10:17:01;;;;;;;;;;;21.00;99.90;;;;;;5011914;28;20198;-84
2021/07/20 10:19:40;;;;;;;;;;;20.90;99.90;;;;;;4994931;28;19963;-83
2021/07/20 10:22:14;;;;;;;;;;;21.10;99.90;;;;;;5012786;28;20020;-83
2021/07/20 10:24:45;;;;;;;;;;;21.00;99.90;;;;;;5010758;28;19914;-83
2021/07/20 10:27:17;;;;;;;;;;;21.10;99.90;;;;;;4993591;28;19914;-83
2021/07/20 10:29:42;;;;;;;;;;;21.10;99.90;;;;;;4995716;28;19918;-83
2021/07/20 10:32:24;;;;;;;;;;;21.00;99.90;;;;;;5014353;28;19944;-84
2021/07/20 10:34:55;;;;;;;;;;;21.00;99.90;;;;;;5019879;28;20003;-83
2021/07/20 10:37:23;;;;;;;;;;;20.80;99.90;;;;;;5054030;28;20399;-83
2021/07/20 10:39:52;;;;;;;;;;;20.70;99.90;;;;;;5049669;28;19923;-83
2021/07/20 10:42:24;;;;;;;;;;;20.50;99.90;;;;;;5055520;28;20239;-80
2021/07/20 10:45:04;;;;;;;;;;;20.50;99.90;;;;;;5053291;28;19913;-80
2021/07/20 10:47:38;;;;;;;;;;;20.50;99.90;;;;;;5051950;28;19913;-80
2021/07/20 10:50:13;;;;;;;;;;;20.50;99.90;;;;;;5051824;28;19924;-80
2021/07/20 10:52:42;;;;;;;;;;;20.50;99.90;;;;;;5052126;28;20006;-85
2021/07/20 10:55:14;;;;;;;;;;;20.40;99.90;;;;;;5062839;28;20000;-81
2021/07/20 10:57:46;;;;;;;;;;;20.50;99.90;;;;;;5050660;28;19923;-83
2021/07/20 11:00:14;;;;;;;;;;;20.50;99.90;;;;;;5061460;28;19921;-83
2021/07/20 11:02:49;;;;;;;;;;;20.40;99.90;;;;;;5052541;28;19917;-85
2021/07/20 11:05:16;;;;;;;;;;;20.50;99.90;;;;;;5056628;28;19956;-84
2021/07/20 11:07:41;;;;;;;;;;;20.60;99.90;;;;;;5056349;28;20220;-84
2021/07/20 11:10:33;;;;;;;;;;;20.80;99.90;;;;;;5054688;28;19921;-84
2021/07/20 11:13:00;;;;;;;;;;;20.90;99.90;;;;;;5052040;28;19920;-83
2021/07/20 11:15:27;;;;;;;;;;;20.90;99.90;;;;;;5057008;28;19913;-83
2021/07/20 11:17:56;;;;;;;;;;;21.00;99.90;;;;;;5055431;28;19963;-80
2021/07/20 11:20:22;;;;;;;;;;;20.90;99.90;;;;;;5054731;28;19919;-83
2021/07/20 11:22:48;;;;;;;;;;;20.90;99.90;;;;;;5053578;28;19913;-84
2021/07/20 11:25:15;;;;;;;;;;;21.00;99.90;;;;;;5053381;28;19913;-85
2021/07/20 11:27:44;;;;;;;;;;;20.90;99.90;;;;;;5051036;28;20261;-85
2021/07/20 11:30:14;;;;;;;;;;;21.20;99.90;;;;;;5055029;28;19916;-84
2021/07/20 11:32:43;;;;;;;;;;;21.30;99.90;;;;;;5055977;28;19927;-83
2021/07/20 11:35:18;;;;;;;;;;;21.30;99.90;;;;;;5054783;28;19966;-82
2021/07/20 11:37:50;;;;;;;;;;;21.20;99.90;;;;;;5055007;28;19913;-84
2021/07/20 11:40:20;;;;;;;;;;;21.00;99.90;;;;;;5052937;28;20361;-81
2021/07/20 11:42:49;;;;;;;;;;;21.00;99.90;;;;;;5056159;28;20377;-84
2021/07/20 11:45:15;;;;;;;;;;;21.10;99.90;;;;;;5064242;28;19995;-82
2021/07/20 11:47:48;;;;;;;;;;;21.10;99.90;;;;;;5054577;28;20294;-82
2021/07/20 11:50:23;;;;;;;;;;;21.00;99.90;;;;;;5053229;28;19921;-80
2021/07/20 11:52:54;;;;;;;;;;;21.10;99.90;;;;;;5059184;28;19921;-84
2021/07/20 11:55:39;;;;;;;;;;;21.10;99.90;;;;;;5051152;28;19913;-83
2021/07/20 11:58:10;;;;;;;;;;;21.10;99.90;;;;;;5065527;28;20374;-85
2021/07/20 12:01:04;;;;;;;;;;;21.00;99.90;;;;;;5063286;28;19921;-80
2021/07/20 12:03:44;;;;;;;;;;;21.10;99.90;;;;;;5054291;28;19921;-84
2021/07/20 12:06:29;;;;;;;;;;;21.20;99.90;;;;;;5064837;28;19912;-84
2021/07/20 12:09:09;;;;;;;;;;;21.10;99.90;;;;;;5061112;28;19916;-84
2021/07/20 12:11:38;;;;;;;;;;;21.10;99.90;;;;;;5055081;28;19917;-85
2021/07/20 12:14:05;;;;;;;;;;;20.90;99.90;;;;;;5055087;28;19999;-86
2021/07/20 12:16:31;;;;;;;;;;;20.80;99.90;;;;;;5047953;28;19909;-85
2021/07/20 12:18:59;;;;;;;;;;;20.80;99.90;;;;;;5053706;28;19917;-86
2021/07/20 12:21:26;;;;;;;;;;;20.80;99.90;;;;;;5056110;28;19909;-85
2021/07/20 12:24:06;;;;;;;;;;;20.90;99.90;;;;;;5055347;28;19909;-83
2021/07/20 12:26:32;;;;;;;;;;;20.90;99.90;;;;;;5046886;28;19916;-86
2021/07/20 12:28:57;;;;;;;;;;;21.10;99.90;;;;;;5046907;28;19921;-83
2021/07/20 12:31:27;;;;;;;;;;;21.20;99.90;;;;;;5045401;28;19919;-85
2021/07/20 12:33:53;;;;;;;;;;;21.30;99.90;;;;;;5055209;28;19917;-82
2021/07/20 12:36:19;;;;;;;;;;;21.40;99.90;;;;;;5055177;28;19917;-84
2021/07/20 12:38:44;;;;;;;;;;;21.30;99.90;;;;;;5055233;28;20010;-80
2021/07/20 12:41:12;;;;;;;;;;;21.20;99.90;;;;;;5051035;28;20303;-84
2021/07/20 12:43:41;;;;;;;;;;;21.10;99.90;;;;;;5056932;28;20300;-84
2021/07/20 12:46:13;;;;;;;;;;;21.30;99.90;;;;;;5054716;28;20295;-85
2021/07/20 12:49:05;;;;;;;;;;;21.30;99.90;;;;;;5063633;28;20008;-85
2021/07/20 12:51:31;;;;;;;;;;;21.30;99.90;;;;;;5066912;28;19913;-84
2021/07/20 12:53:56;;;;;;;;;;;21.20;99.90;;;;;;5067339;28;19920;-84
2021/07/20 12:56:23;;;;;;;;;;;21.20;99.90;;;;;;5054129;28;19912;-85
2021/07/20 12:58:50;;;;;;;;;;;21.30;99.90;;;;;;5054007;28;19913;-83
2021/07/20 13:01:16;;;;;;;;;;;21.40;99.90;;;;;;5054233;28;20030;-83
2021/07/20 13:03:43;;;;;;;;;;;21.40;99.90;;;;;;5055097;28;20158;-88
2021/07/20 13:06:08;;;;;;;;;;;21.30;99.90;;;;;;5055000;28;20319;-83
2021/07/20 13:08:35;;;;;;;;;;;21.40;99.90;;;;;;5052555;28;19916;-86
2021/07/20 13:11:00;;;;;;;;;;;21.40;99.90;;;;;;5046849;28;19959;-83
2021/07/20 13:13:28;;;;;;;;;;;21.50;99.90;;;;;;5050305;28;19940;-85
2021/07/20 13:15:54;;;;;;;;;;;21.50;99.90;;;;;;5045773;28;19919;-83
2021/07/20 13:18:24;;;;;;;;;;;21.50;99.90;;;;;;5054765;28;20016;-85
2021/07/20 13:20:53;;;;;;;;;;;21.30;99.90;;;;;;5050379;28;19913;-86
2021/07/20 13:23:19;;;;;;;;;;;21.20;99.90;;;;;;5054436;28;19944;-83
2021/07/20 13:25:47;;;;;;;;;;;21.30;99.90;;;;;;5054261;28;19979;-85
2021/07/20 13:28:15;;;;;;;;;;;21.20;99.90;;;;;;5051091;28;19915;-85
2021/07/20 13:30:41;;;;;;;;;;;21.30;99.90;;;;;;5054155;28;19927;-85
2021/07/20 13:33:06;;;;;;;;;;;21.40;99.90;;;;;;5054321;28;19913;-84
2021/07/20 13:35:32;;;;;;;;;;;21.50;99.90;;;;;;5054702;28;19939;-84
2021/07/20 13:37:58;;;;;;;;;;;21.60;99.90;;;;;;5050113;28;20351;-82
2021/07/20 13:40:26;;;;;;;;;;;21.70;99.90;;;;;;5051062;28;20004;-83
2021/07/20 13:42:52;;;;;;;;;;;21.60;99.90;;;;;;5053976;28;19984;-80
2021/07/20 13:45:18;;;;;;;;;;;21.70;99.90;;;;;;5054764;28;19917;-86
2021/07/20 13:47:58;;;;;;;;;;;21.70;99.90;;;;;;5049595;28;19917;-85
2021/07/20 13:50:24;;;;;;;;;;;21.60;99.90;;;;;;5049928;28;19975;-84
2021/07/20 13:52:52;;;;;;;;;;;21.70;99.90;;;;;;5055613;28;19912;-79
2021/07/20 13:55:22;;;;;;;;;;;21.90;99.90;;;;;;5053600;28;20054;-85
2021/07/20 13:57:48;;;;;;;;;;;21.80;99.90;;;;;;5052050;28;20300;-82
2021/07/20 14:00:14;;;;;;;;;;;21.80;99.90;;;;;;5052786;28;19972;-82
2021/07/20 14:02:40;;;;;;;;;;;21.80;99.90;;;;;;5049448;28;19966;-86
2021/07/20 14:05:06;;;;;;;;;;;21.90;99.90;;;;;;5052626;28;19913;-85
2021/07/20 14:07:32;;;;;;;;;;;21.80;99.90;;;;;;5057518;28;19924;-82
2021/07/20 14:09:58;;;;;;;;;;;21.80;99.90;;;;;;5054578;28;20220;-85
2021/07/20 14:12:24;;;;;;;;;;;22.00;99.90;;;;;;5058747;28;20328;-85
2021/07/20 14:14:55;;;;;;;;;;;22.00;99.90;;;;;;5059062;28;19920;-85
2021/07/20 14:17:22;;;;;;;;;;;21.90;99.90;;;;;;5057936;28;19919;-84
2021/07/20 14:19:48;;;;;;;;;;;21.90;99.90;;;;;;5059191;28;19974;-85
2021/07/20 14:22:22;;;;;;;;;;;21.90;99.90;;;;;;5057591;28;19921;-84
2021/07/20 14:24:52;;;;;;;;;;;21.90;99.90;;;;;;5055778;28;20011;-86
2021/07/20 14:27:18;;;;;;;;;;;21.90;99.90;;;;;;5055991;28;19913;-85
2021/07/20 14:29:45;;;;;;;;;;;21.90;99.90;;;;;;5055615;28;20012;-85